sensor_id;sensor_type;location;lat;lon;timestamp;pressure;altitude;pressure_sealevel;temperature;humidity
62847;BME280;49477;35.676;139.586;2023-08-21T00:01:37;100731.00;;;35.70;37.93
62847;BME280;49477;35.676;139.586;2023-08-21T00:04:07;100729.79;;;35.38;37.68
62847;BME280;49477;35.676;139.586;2023-08-21T00:06:36;100728.24;;;35.84;37.81
62847;BME280;49477;35.676;139.586;2023-08-21T00:09:06;100730.26;;;35.34;37.88
62847;BME280;49477;35.676;139.586;2023-08-21T00:11:35;100729.66;;;35.58;38.08
62847;BME280;49477;35.676;139.586;2023-08-21T00:14:05;100724.70;;;35.52;37.75
62847;BME280;49477;35.676;139.586;2023-08-21T00:16:34;100720.64;;;36.19;37.39
62847;BME280;49477;35.676;139.586;2023-08-21T00:19:04;100723.54;;;36.33;37.42
62847;BME280;49477;35.676;139.586;2023-08-21T00:21:33;100721.52;;;36.09;37.55
62847;BME280;49477;35.676;139.586;2023-08-21T00:24:03;100727.25;;;35.72;37.40
62847;BME280;49477;35.676;139.586;2023-08-21T00:26:32;100728.53;;;36.28;36.99
62847;BME280;49477;35.676;139.586;2023-08-21T00:29:02;100724.27;;;36.35;36.96
62847;BME280;49477;35.676;139.586;2023-08-21T00:31:32;100725.51;;;36.68;36.83
62847;BME280;49477;35.676;139.586;2023-08-21T00:34:02;100721.63;;;36.24;36.97
62847;BME280;49477;35.676;139.586;2023-08-21T00:36:31;100723.62;;;36.50;36.35
62847;BME280;49477;35.676;139.586;2023-08-21T00:39:00;100720.98;;;36.17;36.14
62847;BME280;49477;35.676;139.586;2023-08-21T00:41:30;100718.53;;;36.19;35.88
62847;BME280;49477;35.676;139.586;2023-08-21T00:44:00;100716.89;;;36.53;35.78
62847;BME280;49477;35.676;139.586;2023-08-21T00:46:30;100715.11;;;36.30;35.76
62847;BME280;49477;35.676;139.586;2023-08-21T00:49:00;100716.78;;;36.44;35.80
62847;BME280;49477;35.676;139.586;2023-08-21T00:51:30;100716.36;;;36.55;36.06
62847;BME280;49477;35.676;139.586;2023-08-21T00:54:04;100716.15;;;36.96;36.45
62847;BME280;49477;35.676;139.586;2023-08-21T00:56:34;100712.33;;;36.75;35.20
62847;BME280;49477;35.676;139.586;2023-08-21T00:59:03;100708.51;;;36.54;36.06
62847;BME280;49477;35.676;139.586;2023-08-21T01:01:34;100705.75;;;36.70;35.79
62847;BME280;49477;35.676;139.586;2023-08-21T01:04:04;100699.60;;;36.60;35.98
62847;BME280;49477;35.676;139.586;2023-08-21T01:06:33;100700.11;;;36.64;36.21
62847;BME280;49477;35.676;139.586;2023-08-21T01:09:08;100697.11;;;36.49;35.41
62847;BME280;49477;35.676;139.586;2023-08-21T01:11:45;100695.01;;;36.56;35.80
62847;BME280;49477;35.676;139.586;2023-08-21T01:14:21;100692.22;;;37.01;35.80
62847;BME280;49477;35.676;139.586;2023-08-21T01:16:59;100686.47;;;36.66;34.58
62847;BME280;49477;35.676;139.586;2023-08-21T01:19:41;100686.56;;;36.58;35.63
62847;BME280;49477;35.676;139.586;2023-08-21T01:22:11;100683.49;;;36.37;35.60
62847;BME280;49477;35.676;139.586;2023-08-21T01:24:41;100678.42;;;36.69;36.35
62847;BME280;49477;35.676;139.586;2023-08-21T01:27:12;100673.91;;;36.77;36.10
62847;BME280;49477;35.676;139.586;2023-08-21T01:29:42;100674.49;;;36.98;36.35
62847;BME280;49477;35.676;139.586;2023-08-21T01:32:17;100678.00;;;36.80;36.58
62847;BME280;49477;35.676;139.586;2023-08-21T01:34:50;100675.35;;;36.89;36.23
62847;BME280;49477;35.676;139.586;2023-08-21T01:37:25;100672.96;;;36.90;35.57
62847;BME280;49477;35.676;139.586;2023-08-21T01:39:56;100672.19;;;36.95;35.79
62847;BME280;49477;35.676;139.586;2023-08-21T01:42:27;100673.60;;;37.02;35.04
62847;BME280;49477;35.676;139.586;2023-08-21T01:44:56;100673.65;;;36.98;34.20
62847;BME280;49477;35.676;139.586;2023-08-21T01:47:26;100674.24;;;36.73;35.22
62847;BME280;49477;35.676;139.586;2023-08-21T01:49:56;100668.07;;;36.85;35.01
62847;BME280;49477;35.676;139.586;2023-08-21T01:52:25;100665.50;;;37.01;34.59
62847;BME280;49477;35.676;139.586;2023-08-21T01:54:54;100659.66;;;36.94;35.23
62847;BME280;49477;35.676;139.586;2023-08-21T01:57:24;100657.57;;;36.93;35.48
62847;BME280;49477;35.676;139.586;2023-08-21T01:59:53;100661.64;;;37.05;35.24
62847;BME280;49477;35.676;139.586;2023-08-21T02:02:23;100657.91;;;36.82;35.56
62847;BME280;49477;35.676;139.586;2023-08-21T02:04:52;100654.77;;;37.08;35.40
62847;BME280;49477;35.676;139.586;2023-08-21T02:07:22;100654.19;;;37.28;34.53
62847;BME280;49477;35.676;139.586;2023-08-21T02:09:51;100650.66;;;37.09;33.86
62847;BME280;49477;35.676;139.586;2023-08-21T02:12:21;100651.27;;;37.08;34.67
62847;BME280;49477;35.676;139.586;2023-08-21T02:14:52;100650.46;;;37.18;34.60
62847;BME280;49477;35.676;139.586;2023-08-21T02:17:21;100647.27;;;37.21;34.88
62847;BME280;49477;35.676;139.586;2023-08-21T02:19:51;100641.35;;;37.02;33.95
62847;BME280;49477;35.676;139.586;2023-08-21T02:22:20;100644.87;;;37.09;34.74
62847;BME280;49477;35.676;139.586;2023-08-21T02:24:51;100642.24;;;37.32;34.36
62847;BME280;49477;35.676;139.586;2023-08-21T02:27:20;100639.76;;;37.39;34.77
62847;BME280;49477;35.676;139.586;2023-08-21T02:29:50;100642.96;;;37.48;34.46
62847;BME280;49477;35.676;139.586;2023-08-21T02:32:19;100637.41;;;37.31;34.59
62847;BME280;49477;35.676;139.586;2023-08-21T02:34:49;100640.87;;;37.51;34.77
62847;BME280;49477;35.676;139.586;2023-08-21T02:37:18;100639.07;;;37.44;34.49
62847;BME280;49477;35.676;139.586;2023-08-21T02:39:48;100636.87;;;37.62;34.59
62847;BME280;49477;35.676;139.586;2023-08-21T02:42:17;100636.24;;;37.14;34.62
62847;BME280;49477;35.676;139.586;2023-08-21T02:44:47;100636.95;;;37.70;34.64
62847;BME280;49477;35.676;139.586;2023-08-21T02:47:16;100634.91;;;37.71;34.55
62847;BME280;49477;35.676;139.586;2023-08-21T02:49:46;100631.25;;;37.72;34.63
62847;BME280;49477;35.676;139.586;2023-08-21T02:52:15;100629.54;;;37.45;34.70
62847;BME280;49477;35.676;139.586;2023-08-21T02:54:45;100622.83;;;37.73;34.53
62847;BME280;49477;35.676;139.586;2023-08-21T02:57:14;100622.41;;;37.35;34.22
62847;BME280;49477;35.676;139.586;2023-08-21T02:59:44;100623.85;;;37.58;34.55
62847;BME280;49477;35.676;139.586;2023-08-21T03:02:13;100624.29;;;37.45;34.43
62847;BME280;49477;35.676;139.586;2023-08-21T03:04:44;100618.68;;;37.56;34.38
62847;BME280;49477;35.676;139.586;2023-08-21T03:07:13;100617.05;;;37.94;34.44
62847;BME280;49477;35.676;139.586;2023-08-21T03:09:44;100614.16;;;37.47;34.66
62847;BME280;49477;35.676;139.586;2023-08-21T03:12:18;100611.80;;;37.47;34.60
62847;BME280;49477;35.676;139.586;2023-08-21T03:14:47;100609.86;;;37.71;34.09
62847;BME280;49477;35.676;139.586;2023-08-21T03:17:16;100609.94;;;37.61;34.61
62847;BME280;49477;35.676;139.586;2023-08-21T03:19:46;100607.48;;;37.55;34.21
62847;BME280;49477;35.676;139.586;2023-08-21T03:22:15;100602.29;;;37.25;34.29
62847;BME280;49477;35.676;139.586;2023-08-21T03:24:45;100604.86;;;37.16;34.02
62847;BME280;49477;35.676;139.586;2023-08-21T03:27:16;100604.20;;;37.00;33.93
62847;BME280;49477;35.676;139.586;2023-08-21T03:29:45;100599.14;;;37.05;34.05
62847;BME280;49477;35.676;139.586;2023-08-21T03:32:15;100595.07;;;36.95;33.99
62847;BME280;49477;35.676;139.586;2023-08-21T03:34:44;100591.39;;;37.18;33.97
62847;BME280;49477;35.676;139.586;2023-08-21T03:37:13;100588.50;;;37.50;33.69
62847;BME280;49477;35.676;139.586;2023-08-21T03:39:43;100586.64;;;38.01;34.07
62847;BME280;49477;35.676;139.586;2023-08-21T03:42:12;100587.93;;;38.11;33.53
62847;BME280;49477;35.676;139.586;2023-08-21T03:44:42;100588.31;;;38.07;34.01
62847;BME280;49477;35.676;139.586;2023-08-21T03:47:12;100589.88;;;38.04;33.25
62847;BME280;49477;35.676;139.586;2023-08-21T03:49:41;100586.53;;;37.92;33.80
62847;BME280;49477;35.676;139.586;2023-08-21T03:52:11;100583.57;;;37.71;34.57
62847;BME280;49477;35.676;139.586;2023-08-21T03:54:40;100580.95;;;37.81;34.86
62847;BME280;49477;35.676;139.586;2023-08-21T03:57:10;100578.93;;;37.65;34.73
62847;BME280;49477;35.676;139.586;2023-08-21T03:59:39;100578.05;;;38.41;33.15
62847;BME280;49477;35.676;139.586;2023-08-21T04:02:09;100574.34;;;37.93;33.52
62847;BME280;49477;35.676;139.586;2023-08-21T04:04:39;100571.29;;;37.95;33.05
62847;BME280;49477;35.676;139.586;2023-08-21T04:07:09;100573.26;;;37.91;35.67
62847;BME280;49477;35.676;139.586;2023-08-21T04:09:38;100570.76;;;38.18;35.46
62847;BME280;49477;35.676;139.586;2023-08-21T04:12:12;100569.42;;;37.40;35.26
62847;BME280;49477;35.676;139.586;2023-08-21T04:14:41;100564.27;;;37.89;33.67
62847;BME280;49477;35.676;139.586;2023-08-21T04:17:11;100560.94;;;37.63;34.36
62847;BME280;49477;35.676;139.586;2023-08-21T04:19:40;100561.78;;;37.84;34.80
62847;BME280;49477;35.676;139.586;2023-08-21T04:22:10;100555.45;;;37.63;34.91
62847;BME280;49477;35.676;139.586;2023-08-21T04:24:39;100554.54;;;38.14;34.71
62847;BME280;49477;35.676;139.586;2023-08-21T04:27:09;100550.31;;;37.72;34.31
62847;BME280;49477;35.676;139.586;2023-08-21T04:29:39;100545.92;;;38.25;34.55
62847;BME280;49477;35.676;139.586;2023-08-21T04:32:09;100543.43;;;38.04;34.45
62847;BME280;49477;35.676;139.586;2023-08-21T04:34:40;100543.20;;;38.02;34.53
62847;BME280;49477;35.676;139.586;2023-08-21T04:37:10;100541.88;;;37.77;34.85
62847;BME280;49477;35.676;139.586;2023-08-21T04:39:39;100541.69;;;38.28;34.50
62847;BME280;49477;35.676;139.586;2023-08-21T04:42:09;100539.70;;;37.79;34.29
62847;BME280;49477;35.676;139.586;2023-08-21T04:44:38;100540.90;;;38.24;33.90
62847;BME280;49477;35.676;139.586;2023-08-21T04:47:25;100535.16;;;37.46;33.76
62847;BME280;49477;35.676;139.586;2023-08-21T04:49:55;100532.18;;;38.21;34.21
62847;BME280;49477;35.676;139.586;2023-08-21T04:52:25;100522.63;;;37.38;33.81
62847;BME280;49477;35.676;139.586;2023-08-21T04:54:55;100529.20;;;37.88;34.15
62847;BME280;49477;35.676;139.586;2023-08-21T04:57:25;100518.88;;;38.00;34.45
62847;BME280;49477;35.676;139.586;2023-08-21T04:59:54;100519.58;;;38.10;34.37
62847;BME280;49477;35.676;139.586;2023-08-21T05:02:29;100517.76;;;37.89;34.31
62847;BME280;49477;35.676;139.586;2023-08-21T05:04:57;100519.29;;;38.14;34.35
62847;BME280;49477;35.676;139.586;2023-08-21T05:07:27;100516.66;;;38.07;33.86
62847;BME280;49477;35.676;139.586;2023-08-21T05:10:06;100514.70;;;38.00;33.74
62847;BME280;49477;35.676;139.586;2023-08-21T05:12:35;100515.83;;;37.98;34.72
62847;BME280;49477;35.676;139.586;2023-08-21T05:15:05;100516.29;;;37.94;34.97
62847;BME280;49477;35.676;139.586;2023-08-21T05:17:34;100519.07;;;38.23;34.71
62847;BME280;49477;35.676;139.586;2023-08-21T05:20:05;100518.00;;;37.86;34.68
62847;BME280;49477;35.676;139.586;2023-08-21T05:22:34;100514.97;;;37.92;34.63
62847;BME280;49477;35.676;139.586;2023-08-21T05:25:05;100510.59;;;38.40;34.55
62847;BME280;49477;35.676;139.586;2023-08-21T05:27:34;100508.28;;;37.91;34.65
62847;BME280;49477;35.676;139.586;2023-08-21T05:30:05;100513.28;;;37.62;34.71
62847;BME280;49477;35.676;139.586;2023-08-21T05:32:34;100511.16;;;38.00;34.51
62847;BME280;49477;35.676;139.586;2023-08-21T05:35:03;100518.54;;;37.97;34.60
62847;BME280;49477;35.676;139.586;2023-08-21T05:37:33;100520.87;;;38.12;34.11
62847;BME280;49477;35.676;139.586;2023-08-21T05:40:03;100509.70;;;37.90;34.48
62847;BME280;49477;35.676;139.586;2023-08-21T05:42:33;100502.34;;;37.85;34.78
62847;BME280;49477;35.676;139.586;2023-08-21T05:45:03;100504.11;;;38.38;34.96
62847;BME280;49477;35.676;139.586;2023-08-21T05:47:33;100506.21;;;37.84;35.54
62847;BME280;49477;35.676;139.586;2023-08-21T05:50:02;100508.16;;;37.92;35.47
62847;BME280;49477;35.676;139.586;2023-08-21T05:52:33;100507.22;;;38.01;35.40
62847;BME280;49477;35.676;139.586;2023-08-21T05:55:04;100506.91;;;37.77;35.40
62847;BME280;49477;35.676;139.586;2023-08-21T05:57:37;100507.93;;;38.19;35.56
62847;BME280;49477;35.676;139.586;2023-08-21T06:00:07;100512.69;;;37.28;35.94
62847;BME280;49477;35.676;139.586;2023-08-21T06:02:36;100517.25;;;38.02;35.42
62847;BME280;49477;35.676;139.586;2023-08-21T06:05:06;100521.77;;;37.56;35.43
62847;BME280;49477;35.676;139.586;2023-08-21T06:07:37;100520.87;;;37.82;35.81
62847;BME280;49477;35.676;139.586;2023-08-21T06:10:08;100513.09;;;37.48;35.63
62847;BME280;49477;35.676;139.586;2023-08-21T06:12:38;100504.21;;;37.69;35.63
62847;BME280;49477;35.676;139.586;2023-08-21T06:15:08;100504.39;;;37.71;35.72
62847;BME280;49477;35.676;139.586;2023-08-21T06:17:37;100502.52;;;37.68;35.75
62847;BME280;49477;35.676;139.586;2023-08-21T06:20:08;100496.65;;;37.47;35.77
62847;BME280;49477;35.676;139.586;2023-08-21T06:22:37;100489.05;;;37.68;35.63
62847;BME280;49477;35.676;139.586;2023-08-21T06:25:08;100490.17;;;37.26;35.27
62847;BME280;49477;35.676;139.586;2023-08-21T06:27:37;100490.83;;;38.01;35.14
62847;BME280;49477;35.676;139.586;2023-08-21T06:30:08;100491.18;;;37.35;35.01
62847;BME280;49477;35.676;139.586;2023-08-21T06:32:37;100492.86;;;37.80;34.98
62847;BME280;49477;35.676;139.586;2023-08-21T06:35:07;100494.96;;;37.37;35.06
62847;BME280;49477;35.676;139.586;2023-08-21T06:37:36;100498.71;;;37.73;34.94
62847;BME280;49477;35.676;139.586;2023-08-21T06:40:06;100498.97;;;38.01;34.92
62847;BME280;49477;35.676;139.586;2023-08-21T06:42:36;100500.22;;;37.73;35.08
62847;BME280;49477;35.676;139.586;2023-08-21T06:45:07;100498.18;;;37.49;34.91
62847;BME280;49477;35.676;139.586;2023-08-21T06:47:42;100496.22;;;37.79;34.81
62847;BME280;49477;35.676;139.586;2023-08-21T06:50:13;100496.56;;;37.99;34.72
62847;BME280;49477;35.676;139.586;2023-08-21T06:52:42;100490.34;;;38.01;34.74
62847;BME280;49477;35.676;139.586;2023-08-21T06:55:11;100491.42;;;38.12;34.55
62847;BME280;49477;35.676;139.586;2023-08-21T06:57:41;100488.52;;;37.65;34.66
62847;BME280;49477;35.676;139.586;2023-08-21T07:00:11;100485.66;;;37.23;34.81
62847;BME280;49477;35.676;139.586;2023-08-21T07:02:43;100478.45;;;37.81;34.76
62847;BME280;49477;35.676;139.586;2023-08-21T07:05:13;100475.23;;;37.40;34.55
62847;BME280;49477;35.676;139.586;2023-08-21T07:07:42;100476.59;;;37.78;34.62
62847;BME280;49477;35.676;139.586;2023-08-21T07:10:18;100482.51;;;37.38;34.84
62847;BME280;49477;35.676;139.586;2023-08-21T07:12:47;100482.11;;;37.66;34.60
62847;BME280;49477;35.676;139.586;2023-08-21T07:15:17;100485.31;;;37.79;34.78
62847;BME280;49477;35.676;139.586;2023-08-21T07:17:46;100480.85;;;37.62;34.75
62847;BME280;49477;35.676;139.586;2023-08-21T07:20:16;100481.79;;;37.72;34.62
62847;BME280;49477;35.676;139.586;2023-08-21T07:22:45;100485.90;;;37.73;34.54
62847;BME280;49477;35.676;139.586;2023-08-21T07:25:15;100489.93;;;37.52;34.67
62847;BME280;49477;35.676;139.586;2023-08-21T07:27:45;100496.56;;;37.38;34.88
62847;BME280;49477;35.676;139.586;2023-08-21T07:30:20;100499.66;;;37.57;34.79
62847;BME280;49477;35.676;139.586;2023-08-21T07:32:50;100502.58;;;38.16;34.56
62847;BME280;49477;35.676;139.586;2023-08-21T07:35:20;100504.70;;;37.81;34.47
62847;BME280;49477;35.676;139.586;2023-08-21T07:37:50;100509.88;;;37.80;34.61
62847;BME280;49477;35.676;139.586;2023-08-21T07:40:20;100515.30;;;38.02;34.54
62847;BME280;49477;35.676;139.586;2023-08-21T07:42:50;100524.17;;;38.03;34.53
62847;BME280;49477;35.676;139.586;2023-08-21T07:45:20;100526.72;;;38.07;34.59
62847;BME280;49477;35.676;139.586;2023-08-21T07:47:49;100526.91;;;38.08;34.48
62847;BME280;49477;35.676;139.586;2023-08-21T07:50:19;100526.88;;;37.86;34.53
62847;BME280;49477;35.676;139.586;2023-08-21T07:52:48;100528.45;;;37.70;34.81
62847;BME280;49477;35.676;139.586;2023-08-21T07:55:18;100534.13;;;37.75;34.76
62847;BME280;49477;35.676;139.586;2023-08-21T07:57:47;100536.69;;;38.01;34.70
62847;BME280;49477;35.676;139.586;2023-08-21T08:00:17;100537.52;;;37.75;34.73
62847;BME280;49477;35.676;139.586;2023-08-21T08:02:46;100536.38;;;38.19;34.79
62847;BME280;49477;35.676;139.586;2023-08-21T08:05:21;100535.43;;;37.72;34.87
62847;BME280;49477;35.676;139.586;2023-08-21T08:07:50;100530.93;;;37.99;34.92
62847;BME280;49477;35.676;139.586;2023-08-21T08:10:19;100533.76;;;38.15;35.05
62847;BME280;49477;35.676;139.586;2023-08-21T08:12:49;100538.92;;;37.82;35.35
62847;BME280;49477;35.676;139.586;2023-08-21T08:15:19;100539.07;;;37.88;35.55
62847;BME280;49477;35.676;139.586;2023-08-21T08:17:48;100541.70;;;37.90;35.63
62847;BME280;49477;35.676;139.586;2023-08-21T08:20:18;100545.54;;;37.60;35.74
62847;BME280;49477;35.676;139.586;2023-08-21T08:22:48;100548.03;;;37.92;35.77
62847;BME280;49477;35.676;139.586;2023-08-21T08:25:18;100556.27;;;37.88;35.92
62847;BME280;49477;35.676;139.586;2023-08-21T08:27:47;100557.44;;;37.84;35.33
62847;BME280;49477;35.676;139.586;2023-08-21T08:30:17;100555.50;;;38.00;35.21
62847;BME280;49477;35.676;139.586;2023-08-21T08:32:46;100556.52;;;37.87;35.93
62847;BME280;49477;35.676;139.586;2023-08-21T08:35:16;100555.08;;;37.58;35.76
62847;BME280;49477;35.676;139.586;2023-08-21T08:37:46;100553.67;;;37.85;35.85
62847;BME280;49477;35.676;139.586;2023-08-21T08:40:16;100556.63;;;37.57;35.92
62847;BME280;49477;35.676;139.586;2023-08-21T08:42:45;100558.24;;;38.04;35.91
62847;BME280;49477;35.676;139.586;2023-08-21T08:45:15;100559.70;;;38.01;36.06
62847;BME280;49477;35.676;139.586;2023-08-21T08:47:54;100562.86;;;37.98;36.23
62847;BME280;49477;35.676;139.586;2023-08-21T08:50:24;100566.76;;;37.49;36.10
62847;BME280;49477;35.676;139.586;2023-08-21T08:52:54;100571.43;;;37.89;35.79
62847;BME280;49477;35.676;139.586;2023-08-21T08:55:24;100577.57;;;37.99;35.97
62847;BME280;49477;35.676;139.586;2023-08-21T08:57:54;100577.54;;;37.71;35.99
62847;BME280;49477;35.676;139.586;2023-08-21T09:00:23;100578.23;;;37.46;35.92
62847;BME280;49477;35.676;139.586;2023-08-21T09:02:53;100580.93;;;37.58;36.07
62847;BME280;49477;35.676;139.586;2023-08-21T09:05:23;100585.93;;;37.70;36.24
62847;BME280;49477;35.676;139.586;2023-08-21T09:08:10;100593.44;;;37.39;36.32
62847;BME280;49477;35.676;139.586;2023-08-21T09:10:41;100592.64;;;37.76;36.23
62847;BME280;49477;35.676;139.586;2023-08-21T09:13:14;100593.99;;;37.36;36.14
62847;BME280;49477;35.676;139.586;2023-08-21T09:15:45;100595.28;;;37.62;36.13
62847;BME280;49477;35.676;139.586;2023-08-21T09:18:15;100600.70;;;37.65;36.15
62847;BME280;49477;35.676;139.586;2023-08-21T09:20:44;100603.69;;;37.75;36.35
62847;BME280;49477;35.676;139.586;2023-08-21T09:23:16;100606.47;;;37.42;36.61
62847;BME280;49477;35.676;139.586;2023-08-21T09:25:48;100606.65;;;37.66;36.53
62847;BME280;49477;35.676;139.586;2023-08-21T09:28:19;100606.92;;;37.55;36.89
62847;BME280;49477;35.676;139.586;2023-08-21T09:30:52;100608.08;;;37.37;37.00
62847;BME280;49477;35.676;139.586;2023-08-21T09:33:23;100612.44;;;37.21;36.33
62847;BME280;49477;35.676;139.586;2023-08-21T09:35:54;100616.36;;;37.43;36.38
62847;BME280;49477;35.676;139.586;2023-08-21T09:38:25;100615.41;;;37.30;36.73
62847;BME280;49477;35.676;139.586;2023-08-21T09:40:56;100618.54;;;37.26;36.88
62847;BME280;49477;35.676;139.586;2023-08-21T09:43:26;100626.53;;;37.10;37.32
62847;BME280;49477;35.676;139.586;2023-08-21T09:45:56;100625.55;;;36.63;38.58
62847;BME280;49477;35.676;139.586;2023-08-21T09:48:26;100630.42;;;37.10;40.25
62847;BME280;49477;35.676;139.586;2023-08-21T09:50:55;100625.24;;;36.81;40.25
62847;BME280;49477;35.676;139.586;2023-08-21T09:53:25;100622.27;;;36.98;41.80
62847;BME280;49477;35.676;139.586;2023-08-21T09:55:55;100628.38;;;36.49;41.59
62847;BME280;49477;35.676;139.586;2023-08-21T09:58:27;100637.18;;;36.86;40.11
62847;BME280;49477;35.676;139.586;2023-08-21T10:00:58;100645.34;;;37.06;39.90
62847;BME280;49477;35.676;139.586;2023-08-21T10:03:29;100647.12;;;36.95;39.38
62847;BME280;49477;35.676;139.586;2023-08-21T10:05:59;100648.15;;;36.76;39.15
62847;BME280;49477;35.676;139.586;2023-08-21T10:08:29;100651.13;;;36.52;39.44
62847;BME280;49477;35.676;139.586;2023-08-21T10:11:01;100654.71;;;36.84;39.39
62847;BME280;49477;35.676;139.586;2023-08-21T10:13:34;100658.23;;;36.76;39.43
62847;BME280;49477;35.676;139.586;2023-08-21T10:16:05;100659.86;;;36.06;39.85
62847;BME280;49477;35.676;139.586;2023-08-21T10:18:37;100659.47;;;36.32;39.78
62847;BME280;49477;35.676;139.586;2023-08-21T10:21:16;100657.07;;;35.83;39.78
62847;BME280;49477;35.676;139.586;2023-08-21T10:23:48;100659.00;;;36.60;39.77
62847;BME280;49477;35.676;139.586;2023-08-21T10:26:20;100666.62;;;36.29;39.92
62847;BME280;49477;35.676;139.586;2023-08-21T10:28:52;100673.48;;;36.31;39.83
62847;BME280;49477;35.676;139.586;2023-08-21T10:31:39;100677.78;;;36.43;39.61
62847;BME280;49477;35.676;139.586;2023-08-21T10:34:10;100679.41;;;36.34;39.64
62847;BME280;49477;35.676;139.586;2023-08-21T10:37:03;100683.56;;;36.59;39.32
62847;BME280;49477;35.676;139.586;2023-08-21T10:39:33;100690.16;;;36.53;39.38
62847;BME280;49477;35.676;139.586;2023-08-21T10:42:05;100691.78;;;36.78;38.74
62847;BME280;49477;35.676;139.586;2023-08-21T10:44:54;100694.13;;;36.74;39.01
62847;BME280;49477;35.676;139.586;2023-08-21T10:47:31;100696.82;;;36.71;38.97
62847;BME280;49477;35.676;139.586;2023-08-21T10:50:05;100700.43;;;36.48;39.87
62847;BME280;49477;35.676;139.586;2023-08-21T10:52:38;100703.38;;;36.43;40.03
62847;BME280;49477;35.676;139.586;2023-08-21T10:55:09;100708.64;;;36.43;39.59
62847;BME280;49477;35.676;139.586;2023-08-21T10:57:39;100710.75;;;36.22;39.98
62847;BME280;49477;35.676;139.586;2023-08-21T11:00:10;100707.85;;;35.82;39.66
62847;BME280;49477;35.676;139.586;2023-08-21T11:02:43;100707.05;;;36.59;39.31
62847;BME280;49477;35.676;139.586;2023-08-21T11:05:13;100708.25;;;36.39;39.52
62847;BME280;49477;35.676;139.586;2023-08-21T11:07:44;100707.51;;;36.61;39.52
62847;BME280;49477;35.676;139.586;2023-08-21T11:10:16;100712.57;;;36.47;39.40
62847;BME280;49477;35.676;139.586;2023-08-21T11:12:54;100714.34;;;36.43;39.60
62847;BME280;49477;35.676;139.586;2023-08-21T11:15:26;100719.11;;;36.28;39.58
62847;BME280;49477;35.676;139.586;2023-08-21T11:17:57;100717.77;;;36.43;39.54
62847;BME280;49477;35.676;139.586;2023-08-21T11:20:30;100720.05;;;36.03;39.86
62847;BME280;49477;35.676;139.586;2023-08-21T11:23:01;100722.53;;;35.88;39.86
62847;BME280;49477;35.676;139.586;2023-08-21T11:25:31;100729.16;;;36.17;39.93
62847;BME280;49477;35.676;139.586;2023-08-21T11:28:00;100738.34;;;35.91;40.53
62847;BME280;49477;35.676;139.586;2023-08-21T11:30:31;100739.12;;;35.81;40.33
62847;BME280;49477;35.676;139.586;2023-08-21T11:33:08;100732.72;;;36.63;39.85
62847;BME280;49477;35.676;139.586;2023-08-21T11:35:38;100730.92;;;36.56;39.73
62847;BME280;49477;35.676;139.586;2023-08-21T11:38:16;100730.88;;;35.80;39.89
62847;BME280;49477;35.676;139.586;2023-08-21T11:40:55;100738.66;;;36.29;39.48
62847;BME280;49477;35.676;139.586;2023-08-21T11:43:35;100744.65;;;35.99;39.42
62847;BME280;49477;35.676;139.586;2023-08-21T11:46:07;100747.09;;;36.50;39.32
62847;BME280;49477;35.676;139.586;2023-08-21T11:48:38;100746.93;;;36.29;38.85
62847;BME280;49477;35.676;139.586;2023-08-21T11:51:09;100751.59;;;36.45;38.76
62847;BME280;49477;35.676;139.586;2023-08-21T11:53:40;100755.81;;;36.01;39.22
62847;BME280;49477;35.676;139.586;2023-08-21T11:56:16;100757.21;;;36.05;37.98
62847;BME280;49477;35.676;139.586;2023-08-21T11:58:46;100756.86;;;36.56;38.07
62847;BME280;49477;35.676;139.586;2023-08-21T12:01:18;100753.00;;;36.41;38.08
62847;BME280;49477;35.676;139.586;2023-08-21T12:03:47;100755.18;;;36.40;38.32
62847;BME280;49477;35.676;139.586;2023-08-21T12:06:17;100757.97;;;35.95;38.74
62847;BME280;49477;35.676;139.586;2023-08-21T12:08:47;100753.58;;;36.16;38.99
62847;BME280;49477;35.676;139.586;2023-08-21T12:11:16;100750.21;;;36.01;38.46
62847;BME280;49477;35.676;139.586;2023-08-21T12:13:45;100740.99;;;36.00;38.45
62847;BME280;49477;35.676;139.586;2023-08-21T12:16:15;100744.84;;;36.13;38.15
62847;BME280;49477;35.676;139.586;2023-08-21T12:18:44;100746.05;;;36.35;39.42
62847;BME280;49477;35.676;139.586;2023-08-21T12:21:14;100748.96;;;35.93;38.79
62847;BME280;49477;35.676;139.586;2023-08-21T12:23:43;100747.05;;;36.04;39.25
62847;BME280;49477;35.676;139.586;2023-08-21T12:26:13;100745.74;;;35.70;39.60
62847;BME280;49477;35.676;139.586;2023-08-21T12:28:42;100743.72;;;35.85;40.91
62847;BME280;49477;35.676;139.586;2023-08-21T12:31:12;100746.75;;;35.44;40.75
62847;BME280;49477;35.676;139.586;2023-08-21T12:33:41;100743.58;;;35.80;40.47
62847;BME280;49477;35.676;139.586;2023-08-21T12:36:10;100742.91;;;35.85;40.33
62847;BME280;49477;35.676;139.586;2023-08-21T12:38:40;100740.08;;;36.27;39.82
62847;BME280;49477;35.676;139.586;2023-08-21T12:41:10;100736.57;;;35.81;39.82
62847;BME280;49477;35.676;139.586;2023-08-21T12:43:39;100740.23;;;35.88;40.30
62847;BME280;49477;35.676;139.586;2023-08-21T12:46:09;100740.16;;;35.80;40.02
62847;BME280;49477;35.676;139.586;2023-08-21T12:48:38;100740.74;;;36.23;40.18